bizx.info alexa rank chart, bizx.info alexa rank daily changes

bizx.info alexa rank chart, bizx.info alexa rank daily changes

bizx.info
Actual rank:
945 326

RANK HISTORY

Date Rank Diff
2016/12/05 945 326 -3 687
2016/12/04 949 013 +17 080
2016/12/02 931 933 +5 984
2016/12/01 925 949 -35 795
2016/11/30 961 744 +21 280
2016/11/29 940 464 +27 118
2016/11/28 913 346 +53 859
2016/11/27 859 487 +17 424
2016/11/26 842 063 +70 967
2016/11/25 771 096 -3 600
2016/11/24 774 696 -51 836
2016/11/23 826 532 -105 968
2016/11/19 932 500 -65 882
2016/11/18 998 382 +304 662
2016/11/15 693 720 -7 834
2016/11/14 701 554 +8 059
2016/11/13 693 495 +13 424
2016/11/12 680 071 +13 101
2016/11/11 666 970 -13 131
2016/11/10 680 101 -1 906
2016/11/09 682 007 +11 639
2016/11/08 670 368 +7 511
2016/11/07 662 857 -8 483
2016/11/06 671 340 -14 355
2016/11/05 685 695 -4 671
2016/11/04 690 366 +29 225
2016/11/03 661 141 +2 198
2016/11/02 658 943 +18 299
2016/11/01 640 644 +10 887
2016/10/31 629 757 -6 647
2016/10/30 636 404 -16 523
2016/10/29 652 927 -3 423
2016/10/28 656 350 -29 278
2016/10/27 685 628 -9 748
2016/10/26 695 376 -55 814
2016/10/25 751 190 +15 280
2016/10/24 735 910 +15 124
2016/10/23 720 786 +13 452
2016/10/22 707 334 -153
2016/10/21 707 487 +532
2016/10/20 706 955 -10 656
2016/10/19 717 611 +4 054
2016/10/18 713 557 -1 062
2016/10/17 714 619 -1 075
2016/10/16 715 694

WIDGET FOR YOUR SITE

DOMAINS WITH THE NEAREST RANK

Domain Rank
openremote.com 945 321
biber.de 945 322
sahibeler.com 945 323
kartinki-risunki.ru 945 324
szdaily.com 945 325
bizx.info 945 326
epicentre.tv 945 327
imoneybank.ru 945 328
smartshake.com 945 329
icgiyimgo.com 945 330
best-i-test.nu 945 331

DOMAINS WITH THE NEAREST RANK BY TLD .info

Domain Rank
superchao.info 944 804
onewst.info 944 863
pro-kinetic.info 944 988
90210locations.info 945 105
yamazakitokuten.info 945 154
bizx.info 945 326
wbrnet.info 945 345
nicenosereport.info 945 453
quotes-insurance-free.info 945 490
intracknow.info 945 726
elpublicista.info 945 778